createdAt,value
2022-08-09T00:00:06.237Z,2.9
2022-08-09T00:06:12.115Z,2.6
2022-08-09T00:10:05.110Z,2.6
2022-08-09T00:15:06.454Z,2.8
2022-08-09T00:20:05.114Z,2.8
2022-08-09T00:25:08.476Z,3
2022-08-09T00:30:10.562Z,3
2022-08-09T00:35:05.102Z,2.6
2022-08-09T00:40:10.075Z,2.6
2022-08-09T00:45:14.791Z,2.5
2022-08-09T00:50:05.106Z,2.5
2022-08-09T00:55:05.101Z,2.7
2022-08-09T01:00:05.389Z,2.7
2022-08-09T01:05:05.105Z,2.7
2022-08-09T01:10:05.117Z,2.7
2022-08-09T01:15:05.809Z,2.9
2022-08-09T01:20:05.103Z,2.9
2022-08-09T01:25:05.110Z,2.7
2022-08-09T01:30:05.122Z,2.7
2022-08-09T01:35:06.820Z,2.4
2022-08-09T01:40:05.112Z,2.4
2022-08-09T01:45:05.564Z,2.6
2022-08-09T01:50:06.466Z,2.6
2022-08-09T01:55:05.104Z,2.6
2022-08-09T02:00:08.869Z,2.6
2022-08-09T02:05:05.371Z,3.1
2022-08-09T02:10:05.171Z,3.1
2022-08-09T02:15:06.290Z,3.1
2022-08-09T02:20:05.125Z,3.1
2022-08-09T02:25:06.606Z,2.8
2022-08-09T02:30:05.105Z,2.8
2022-08-09T02:35:10.213Z,3.1
2022-08-09T02:40:05.191Z,3.1
2022-08-09T02:45:05.112Z,2.9
2022-08-09T02:50:05.107Z,2.9
2022-08-09T02:55:20.501Z,2.9
2022-08-09T03:00:21.706Z,2.9
2022-08-09T03:05:05.663Z,3
2022-08-09T03:10:05.108Z,3
2022-08-09T03:15:05.109Z,3.3
2022-08-09T03:20:11.346Z,3.3
2022-08-09T03:25:06.842Z,3
2022-08-09T03:30:05.107Z,3
2022-08-09T03:35:05.105Z,3.2
2022-08-09T03:40:05.143Z,3.2
2022-08-09T03:45:05.105Z,3.1
2022-08-09T03:50:05.109Z,3.1
2022-08-09T03:55:07.613Z,3.3
2022-08-09T04:00:05.112Z,3.3
2022-08-09T04:05:06.172Z,3.2
2022-08-09T04:10:05.115Z,3.2
2022-08-09T04:15:11.770Z,3.5
2022-08-09T04:20:05.112Z,3.5
2022-08-09T04:25:05.105Z,3.4
2022-08-09T04:30:05.112Z,3.4
2022-08-09T04:35:05.120Z,3.5
2022-08-09T04:40:05.107Z,3.5
2022-08-09T04:45:05.108Z,3.9
2022-08-09T04:50:05.106Z,3.9
2022-08-09T04:55:07.019Z,3.4
2022-08-09T05:00:05.157Z,3.4
2022-08-09T05:05:09.992Z,3.8
2022-08-09T05:10:05.108Z,3.8
2022-08-09T05:15:11.268Z,4.1
2022-08-09T05:20:05.118Z,4.1
2022-08-09T05:25:05.105Z,3.7
2022-08-09T05:30:05.114Z,3.7
2022-08-09T05:35:05.104Z,3.6
2022-08-09T05:40:05.182Z,3.6
2022-08-09T05:45:05.108Z,3
2022-08-09T05:50:11.129Z,3
2022-08-09T05:55:07.071Z,2.9
2022-08-09T06:00:05.114Z,2.9
2022-08-09T06:05:05.104Z,3.4
2022-08-09T06:10:05.108Z,3.4
2022-08-09T06:15:09.529Z,3.2
2022-08-09T06:20:05.119Z,3.2
2022-08-09T06:25:08.538Z,3.1
2022-08-09T06:30:08.792Z,3.1
2022-08-09T06:35:06.293Z,3.4
2022-08-09T06:40:17.809Z,3.4
2022-08-09T06:45:20.529Z,3
2022-08-09T06:50:12.588Z,3
2022-08-09T06:55:09.992Z,3
2022-08-09T07:00:47.905Z,3
2022-08-09T07:05:05.104Z,2.7
2022-08-09T07:10:12.768Z,2.7
2022-08-09T07:15:53.452Z,2.9
2022-08-09T07:20:05.116Z,2.9
2022-08-09T07:25:09.399Z,3
2022-08-09T07:30:05.412Z,3
2022-08-09T07:35:07.856Z,2.5
2022-08-09T07:40:05.243Z,2.5
2022-08-09T07:45:06.624Z,2.4
2022-08-09T07:50:08.487Z,2.4
2022-08-09T07:55:08.661Z,2.7
2022-08-09T08:00:05.136Z,2.7
2022-08-09T08:05:05.100Z,2.5
2022-08-09T08:10:08.463Z,2.5
2022-08-09T08:15:05.125Z,2.2
2022-08-09T08:20:05.111Z,2.2
2022-08-09T08:25:05.108Z,2.2
2022-08-09T08:30:05.107Z,2.2
2022-08-09T08:35:05.115Z,2.4
2022-08-09T08:40:05.139Z,2.4
2022-08-09T08:45:12.013Z,2.5
2022-08-09T08:50:05.107Z,2.5
2022-08-09T08:55:05.532Z,2.1
2022-08-09T09:00:08.059Z,2.1
2022-08-09T09:05:06.316Z,2.5
2022-08-09T09:10:08.860Z,2.5
2022-08-09T09:15:05.690Z,2.7
2022-08-09T09:20:05.110Z,2.7
2022-08-09T09:26:02.788Z,2.5
2022-08-09T09:30:09.424Z,2.5
2022-08-09T09:35:07.724Z,2.5
2022-08-09T09:40:05.148Z,2.5
2022-08-09T09:45:05.106Z,2.4
2022-08-09T09:50:13.536Z,2.4
2022-08-09T09:55:08.092Z,2.4
2022-08-09T10:00:05.128Z,2.4
2022-08-09T10:05:06.579Z,2.6
2022-08-09T10:10:05.113Z,2.6
2022-08-09T10:15:05.114Z,2.6
2022-08-09T10:20:05.104Z,2.6
2022-08-09T10:25:11.574Z,2.6
2022-08-09T10:30:29.804Z,2.6
2022-08-09T10:35:05.109Z,2.6
2022-08-09T10:40:05.158Z,2.7
2022-08-09T10:45:10.536Z,2.7
2022-08-09T10:50:05.111Z,2.6
2022-08-09T10:55:05.107Z,2.6
2022-08-09T11:00:05.115Z,2.3
2022-08-09T11:05:05.210Z,2.3
2022-08-09T11:10:05.108Z,2.5
2022-08-09T11:15:05.240Z,2.5
2022-08-09T11:20:07.717Z,3.1
2022-08-09T11:25:05.102Z,3.1
2022-08-09T11:30:33.145Z,2.2
2022-08-09T11:35:05.122Z,2.2
2022-08-09T11:40:05.111Z,3
2022-08-09T11:45:05.103Z,3
2022-08-09T11:50:52.757Z,2.4
2022-08-09T11:55:05.101Z,2.4
2022-08-09T12:00:05.668Z,3
2022-08-09T12:05:05.978Z,3
2022-08-09T12:10:05.145Z,2.5
2022-08-09T12:15:08.453Z,2.5
2022-08-09T12:20:05.101Z,2.6
2022-08-09T12:25:05.111Z,2.6
2022-08-09T12:30:36.009Z,2.8
2022-08-09T12:35:05.102Z,2.8
2022-08-09T12:40:05.565Z,2.7
2022-08-09T12:45:06.987Z,2.7
2022-08-09T12:50:05.110Z,2.5
2022-08-09T12:56:11.173Z,2.5
2022-08-09T13:00:05.393Z,2.7
2022-08-09T13:05:05.105Z,2.7
2022-08-09T13:10:05.169Z,2.5
2022-08-09T13:15:05.098Z,2.5
2022-08-09T13:20:08.133Z,2.4
2022-08-09T13:25:05.106Z,2.4
2022-08-09T13:30:49.878Z,2.5
2022-08-09T13:35:05.101Z,2.5
2022-08-09T13:41:21.522Z,2.6
2022-08-09T13:45:08.304Z,2.6
2022-08-09T13:50:07.856Z,2.3
2022-08-09T13:55:07.397Z,2.3
2022-08-09T14:00:05.116Z,2.6
2022-08-09T14:05:05.325Z,2.6
2022-08-09T14:10:05.104Z,5.8
2022-08-09T14:15:05.105Z,5.8
2022-08-09T14:20:05.115Z,2.6
2022-08-09T14:25:05.107Z,2.6
2022-08-09T14:30:36.028Z,2.4
2022-08-09T14:35:05.109Z,2.4
2022-08-09T14:40:05.225Z,2.4
2022-08-09T14:45:15.009Z,2.4
2022-08-09T14:50:05.122Z,2.8
2022-08-09T14:55:05.136Z,2.8
2022-08-09T15:00:05.135Z,3
2022-08-09T15:05:05.115Z,3
2022-08-09T15:10:10.485Z,2.5
2022-08-09T15:15:08.525Z,2.5
2022-08-09T15:20:05.126Z,2.8
2022-08-09T15:25:05.127Z,2.8
2022-08-09T15:30:49.028Z,2.5
2022-08-09T15:35:17.954Z,2.5
2022-08-09T15:40:05.172Z,3
2022-08-09T15:45:05.111Z,3
2022-08-09T15:50:05.562Z,2.8
2022-08-09T15:55:05.103Z,2.8
2022-08-09T16:00:05.121Z,2.9
2022-08-09T16:05:06.845Z,2.9
2022-08-09T16:10:05.534Z,2.7
2022-08-09T16:15:05.107Z,2.7
2022-08-09T16:20:08.967Z,2.9
2022-08-09T16:25:05.103Z,2.9
2022-08-09T16:30:06.293Z,2.9
2022-08-09T16:35:05.099Z,2.9
2022-08-09T16:40:06.017Z,3.1
2022-08-09T16:45:05.102Z,3.1
2022-08-09T16:50:30.800Z,2.8
2022-08-09T16:55:05.112Z,2.8
2022-08-09T17:00:05.120Z,3.1
2022-08-09T17:05:05.114Z,3.1
2022-08-09T17:10:05.171Z,3.7
2022-08-09T17:15:18.194Z,3.7
2022-08-09T17:20:29.333Z,3.1
2022-08-09T17:25:09.912Z,3.1
2022-08-09T17:30:07.051Z,3.2
2022-08-09T17:35:11.106Z,3.2
2022-08-09T17:40:05.139Z,3.4
2022-08-09T17:45:06.436Z,3.4
2022-08-09T17:50:11.148Z,3.5
2022-08-09T17:55:05.105Z,3.5
2022-08-09T18:00:07.435Z,3.4
2022-08-09T18:05:05.107Z,3.4
2022-08-09T18:10:05.663Z,3.5
2022-08-09T18:15:05.100Z,3.5
2022-08-09T18:20:57.506Z,3.5
2022-08-09T18:25:05.102Z,3.5
2022-08-09T18:30:37.517Z,3.1
2022-08-09T18:35:05.110Z,3.1
2022-08-09T18:40:05.171Z,3.4
2022-08-09T18:45:08.511Z,3.4
2022-08-09T18:50:05.865Z,3
2022-08-09T18:55:05.100Z,3
2022-08-09T19:00:05.108Z,2.9
2022-08-09T19:05:15.003Z,2.9
2022-08-09T19:10:15.034Z,3.5
2022-08-09T19:15:06.332Z,3.5
2022-08-09T19:20:05.111Z,3.5
2022-08-09T19:25:07.370Z,3.5
2022-08-09T19:30:21.712Z,3.4
2022-08-09T19:35:05.491Z,3.4
2022-08-09T19:40:05.809Z,3.5
2022-08-09T19:45:05.157Z,3.5
2022-08-09T19:50:10.539Z,3.3
2022-08-09T19:55:05.106Z,3.3
2022-08-09T20:00:07.156Z,3.2
2022-08-09T20:05:10.057Z,3.2
2022-08-09T20:10:06.642Z,3.1
2022-08-09T20:16:31.477Z,3.1
2022-08-09T20:20:05.115Z,3.3
2022-08-09T20:25:05.127Z,3.3
2022-08-09T20:30:05.124Z,3.6
2022-08-09T20:35:05.662Z,3.6
2022-08-09T20:40:14.335Z,3.6
2022-08-09T20:45:56.056Z,3.6
2022-08-09T20:50:05.114Z,3.6
2022-08-09T20:55:05.101Z,3.6
2022-08-09T21:00:19.714Z,3.9
2022-08-09T21:05:55.599Z,3.9
2022-08-09T21:10:05.118Z,3.8
2022-08-09T21:15:05.110Z,3.8
2022-08-09T21:20:19.759Z,3.6
2022-08-09T21:25:05.105Z,3.6
2022-08-09T21:30:05.113Z,3.4
2022-08-09T21:35:05.104Z,3.4
2022-08-09T21:40:05.181Z,3.5
2022-08-09T21:45:05.106Z,3.5
2022-08-09T21:50:05.118Z,3.9
2022-08-09T21:55:05.132Z,3.9
2022-08-09T22:00:05.112Z,3.9
2022-08-09T22:05:10.390Z,3.9
2022-08-09T22:10:05.104Z,3.9
2022-08-09T22:15:05.112Z,3.9
2022-08-09T22:20:05.122Z,3.9
2022-08-09T22:26:04.944Z,3.9
2022-08-09T22:30:05.113Z,4
2022-08-09T22:35:06.466Z,4
2022-08-09T22:40:05.168Z,3.9
2022-08-09T22:48:05.685Z,3.9
2022-08-09T22:50:05.107Z,3.9
2022-08-09T22:55:05.111Z,3.9
2022-08-09T23:00:05.117Z,4.1
2022-08-09T23:05:05.880Z,4.1
2022-08-09T23:10:05.119Z,4
2022-08-09T23:15:05.113Z,4
2022-08-09T23:20:06.593Z,4.2
2022-08-09T23:25:05.129Z,4.2
2022-08-09T23:30:05.132Z,4.1
2022-08-09T23:35:05.118Z,4.1
2022-08-09T23:40:05.121Z,4.2
2022-08-09T23:45:05.116Z,4.2
2022-08-09T23:50:05.123Z,4.4
2022-08-09T23:55:05.128Z,4.4
